Hauptseite
METAR-TAF:

METAR-TAF

Flughäfen :

Flughafen Paderborn/Lippstadt

Paderborn-Lippstadt, Deutschland

Breite: 51-37N, Länge: 008-37E, Höhe: 213 m

Beobachtung

Neuester Wetterbericht von vor 29 Minuten, um 11:50 UTC
Wind 7 kt aus West, variierte zwischen Süd und Nord/Nordwest
Temperatur 22°C
Luftfeuchtigkeit 41%
Luftdruck 1022 hPa
Sichtweite 10 km oder mehr
Leicht bewölkt in der Höhe von 4700 ft

METAR: EDLP 181150Z 26007KT 190V330 9999 FEW047 22/08 Q1022

Zeit: 14:19 (12:19 UTC)

Prognose

Neuester Wetterbericht von vor 1 Stunde und 19 Minuten, um 11:00 UTC
Gültige Prognose vom 18 um 12 UTC bis 19 um 12 UTC
Wind 7 kt aus West/Nordwest
Sichtweite 10 km oder mehr
keine Wolken unter 1500 m und keine Kumulonimbus oder Gewitterwolken
Übergehend zu
vom 18 um 18 UTC bis 18 um 21 UTC
Wind 3 kt aus unterschiedlichen Richtungen

TAF: EDLP 181100Z 1812/1912 30007KT CAVOK BECMG 1818/1821 VRB03KT

Wetterbeobachtungen und Prognosen von mehr als 4000 Flughäfen (METAR und TAF Bericht).

Die verfügbaren Stationen werden durch gelbe und rote Markierungen auf der Karte dargestellt.

Führen Sie die Maus auf sie, um den Namen der Station zu sehen.

Darauf klicken, um die Beobachtung von Wetterbeobachtungen und Prognosen zu sehen.

Um die Karte zu ändern : klicken Sie auf den grünen Tasten mit einem schwarzen Kreuz Zum Vergrößern, auf den grünen Button mit einem Gedankenstrich zu verkleinern, oder auf die grünen Pfeile für benachbarte Karten.


METAR-TAF: